Time;durP1;ratioP1;P1;durP2;ratioP2;P2;SDS_P1;SDS_P2;PMS_P1;PMS_P2;Temp;Humidity;BMP_temperature;BMP_pressure;BME280_temperature;BME280_humidity;BME280_pressure;Samples;Min_cycle;Max_cycle;Signal;HPM_P1;HPM_P2
2023/04/14 00:01:43;;;;;;;58.08;54.85;;;4.40;99.90;;;;;;5066852;28;20036;-72
2023/04/14 00:04:09;;;;;;;57.35;54.03;;;4.40;99.90;;;;;;5065882;28;20063;-72
2023/04/14 00:06:34;;;;;;;56.88;53.45;;;4.40;99.90;;;;;;5071398;28;20075;-72
2023/04/14 00:09:00;;;;;;;56.08;52.70;;;4.40;99.90;;;;;;5069083;28;20063;-72
2023/04/14 00:11:26;;;;;;;55.85;52.40;;;4.40;99.90;;;;;;5070688;28;20040;-72
2023/04/14 00:13:51;;;;;;;55.88;52.70;;;4.40;99.90;;;;;;5087969;28;20117;-72
2023/04/14 00:16:17;;;;;;;54.70;51.78;;;4.30;99.90;;;;;;5085172;28;20122;-72
2023/04/14 00:18:43;;;;;;;57.83;54.65;;;4.30;99.90;;;;;;5087226;28;20129;-72
2023/04/14 00:21:08;;;;;;;58.28;55.17;;;4.30;99.90;;;;;;5083184;28;20040;-72
2023/04/14 00:23:34;;;;;;;60.33;57.20;;;4.30;99.90;;;;;;5086349;28;20036;-72
2023/04/14 00:26:00;;;;;;;61.47;57.85;;;4.20;99.90;;;;;;5083917;28;20036;-72
2023/04/14 00:28:25;;;;;;;60.53;57.33;;;4.20;99.90;;;;;;5085934;28;20050;-72
2023/04/14 00:30:51;;;;;;;59.35;56.05;;;4.20;99.90;;;;;;5085171;28;20121;-72
2023/04/14 00:33:16;;;;;;;61.50;58.33;;;4.20;99.90;;;;;;5083536;28;20488;-72
2023/04/14 00:35:42;;;;;;;63.45;59.78;;;4.20;99.90;;;;;;5070392;28;20046;-72
2023/04/14 00:38:08;;;;;;;64.50;61.20;;;4.10;99.90;;;;;;5084525;28;20044;-72
2023/04/14 00:40:33;;;;;;;64.40;61.10;;;4.10;99.90;;;;;;5084876;28;20043;-72
2023/04/14 00:42:59;;;;;;;67.85;64.25;;;4.10;99.90;;;;;;5086587;28;20040;-72
2023/04/14 00:45:26;;;;;;;72.82;69.05;;;4.10;99.90;;;;;;5070577;28;20143;-72
2023/04/14 00:47:52;;;;;;;73.93;70.00;;;4.10;99.90;;;;;;5086511;28;20051;-72
2023/04/14 00:50:19;;;;;;;73.50;69.97;;;4.00;99.90;;;;;;5083534;28;20475;-72
2023/04/14 00:52:46;;;;;;;76.32;72.43;;;4.00;99.90;;;;;;5086955;28;20032;-72
2023/04/14 00:55:14;;;;;;;77.50;73.78;;;4.00;99.90;;;;;;5068037;28;20430;-72
2023/04/14 00:57:40;;;;;;;82.93;78.82;;;4.00;99.90;;;;;;5084394;28;20810;-72
2023/04/14 01:00:06;;;;;;;84.70;80.78;;;3.90;99.90;;;;;;5087014;28;20035;-72
2023/04/14 01:02:32;;;;;;;84.32;80.22;;;3.90;99.90;;;;;;5082537;28;20106;-72
2023/04/14 01:04:58;;;;;;;76.13;72.28;;;3.80;99.90;;;;;;5087122;28;20036;-72
2023/04/14 01:07:26;;;;;;;83.90;79.82;;;3.80;99.90;;;;;;5065799;28;20036;-72
2023/04/14 01:09:54;;;;;;;82.55;78.72;;;3.70;99.90;;;;;;5086139;28;20047;-72
2023/04/14 01:12:48;;;;;;;87.35;83.13;;;3.70;99.90;;;;;;5081447;28;20081;-72
2023/04/14 01:15:26;;;;;;;85.15;80.70;;;3.70;99.90;;;;;;5081591;28;20420;-72
2023/04/14 01:18:18;;;;;;;98.25;93.40;;;3.80;99.90;;;;;;5114246;27;20036;-72
2023/04/14 01:20:49;;;;;;;92.65;88.35;;;3.70;99.90;;;;;;5084573;28;20408;-72
2023/04/14 01:23:22;;;;;;;98.47;93.63;;;3.70;99.90;;;;;;5086077;28;20471;-72
2023/04/14 01:26:15;;;;;;;102.70;97.83;;;3.60;99.90;;;;;;5079864;28;20064;-72
2023/04/14 01:28:50;;;;;;;93.60;89.15;;;3.60;99.90;;;;;;5061113;28;20132;-72
2023/04/14 01:31:22;;;;;;;96.85;92.53;;;3.70;99.90;;;;;;5063582;28;20044;-72
2023/04/14 01:33:59;;;;;;;98.97;94.57;;;3.70;99.90;;;;;;5050650;28;20043;-72
2023/04/14 01:36:32;;;;;;;93.43;89.30;;;3.80;99.90;;;;;;5076626;28;20041;-72
2023/04/14 01:38:59;;;;;;;94.60;89.80;;;3.80;99.90;;;;;;5066562;28;20053;-72
2023/04/14 01:41:27;;;;;;;92.18;87.90;;;3.80;99.90;;;;;;5064946;28;20044;-72
2023/04/14 01:43:54;;;;;;;90.68;86.25;;;3.70;99.90;;;;;;5064689;28;20040;-72
2023/04/14 01:46:20;;;;;;;85.30;81.20;;;3.70;99.90;;;;;;5061382;28;20043;-72
2023/04/14 01:48:48;;;;;;;93.55;88.95;;;3.60;99.90;;;;;;5049303;28;20036;-72
2023/04/14 01:51:17;;;;;;;104.07;99.47;;;3.60;99.90;;;;;;5063177;28;20412;-72
2023/04/14 01:53:44;;;;;;;105.90;101.07;;;3.60;99.90;;;;;;5064392;28;20178;-72
2023/04/14 01:56:11;;;;;;;107.95;103.20;;;3.50;99.90;;;;;;5063126;28;20510;-72
2023/04/14 01:58:38;;;;;;;104.15;99.50;;;3.50;99.90;;;;;;5065434;28;20049;-72
2023/04/14 02:01:06;;;;;;;108.55;103.47;;;3.60;99.90;;;;;;5062608;28;20158;-72
2023/04/14 02:03:33;;;;;;;106.55;101.35;;;3.60;99.90;;;;;;5064671;28;20049;-72
2023/04/14 02:06:03;;;;;;;104.00;99.38;;;3.60;99.90;;;;;;5073512;28;20074;-72
2023/04/14 02:08:30;;;;;;;97.38;92.97;;;3.70;99.90;;;;;;5052020;28;20036;-72
2023/04/14 02:10:57;;;;;;;98.30;93.50;;;3.70;99.90;;;;;;5051657;28;20123;-72
2023/04/14 02:13:24;;;;;;;96.53;91.55;;;3.80;99.90;;;;;;5053896;28;20041;-72
2023/04/14 02:15:50;;;;;;;93.20;89.03;;;3.70;99.90;;;;;;5051600;28;20086;-72
2023/04/14 02:18:20;;;;;;;89.65;85.50;;;3.70;99.90;;;;;;5066976;28;20037;-72
2023/04/14 02:20:47;;;;;;;97.05;92.53;;;3.70;99.90;;;;;;5066612;28;20052;-72
2023/04/14 02:23:14;;;;;;;95.55;90.95;;;3.70;99.90;;;;;;5064179;28;20086;-72
2023/04/14 02:25:54;;;;;;;93.70;89.57;;;3.70;99.90;;;;;;5051933;28;20040;-72
2023/04/14 02:28:26;;;;;;;90.60;86.53;;;3.70;99.90;;;;;;5068564;28;20045;-72
2023/04/14 02:30:55;;;;;;;89.85;85.80;;;3.70;99.90;;;;;;5067837;28;20032;-72
2023/04/14 02:33:23;;;;;;;92.65;88.35;;;3.70;99.90;;;;;;5064716;28;20044;-72
2023/04/14 02:36:00;;;;;;;88.07;83.53;;;3.60;99.90;;;;;;5067803;28;20052;-72
2023/04/14 02:38:37;;;;;;;83.63;79.32;;;3.60;99.90;;;;;;5065450;28;20115;-72
2023/04/14 02:41:19;;;;;;;86.18;82.13;;;3.50;99.90;;;;;;5065326;28;20036;-72
2023/04/14 02:44:24;;;;;;;86.55;82.40;;;3.50;99.90;;;;;;5070320;28;20475;-72
2023/04/14 02:47:02;;;;;;;;;;;3.30;99.90;;;;;;5052010;28;20033;-72
2023/04/14 02:49:34;;;;;;;87.80;83.65;;;3.30;99.90;;;;;;5078366;28;20340;-72
2023/04/14 02:52:00;;;;;;;101.50;97.15;;;3.20;99.90;;;;;;5053127;28;20396;-72
2023/04/14 02:54:27;;;;;;;103.10;98.57;;;3.20;99.90;;;;;;5064209;28;20041;-73
2023/04/14 02:56:53;;;;;;;104.05;99.50;;;3.20;99.90;;;;;;5078894;28;20155;-73
2023/04/14 02:59:21;;;;;;;103.70;99.15;;;3.20;99.90;;;;;;5063111;28;20037;-73
2023/04/14 03:01:48;;;;;;;105.05;100.10;;;3.20;99.90;;;;;;5060857;28;20044;-73
2023/04/14 03:04:14;;;;;;;107.30;102.15;;;3.10;99.90;;;;;;5066773;28;20041;-73
2023/04/14 03:06:40;;;;;;;108.88;104.22;;;3.10;99.90;;;;;;5067310;28;20041;-73
2023/04/14 03:09:07;;;;;;;108.20;103.50;;;3.00;99.90;;;;;;5048228;28;20397;-73
2023/04/14 03:11:35;;;;;;;107.25;102.40;;;3.10;99.90;;;;;;5066795;28;20140;-73
2023/04/14 03:14:02;;;;;;;107.60;103.13;;;3.00;99.90;;;;;;5051031;28;20091;-73
2023/04/14 03:16:30;;;;;;;109.38;104.20;;;3.00;99.90;;;;;;5067962;28;20072;-73
2023/04/14 03:18:57;;;;;;;110.07;104.95;;;3.00;99.90;;;;;;5050601;28;20040;-73
2023/04/14 03:21:24;;;;;;;107.55;102.60;;;3.00;99.90;;;;;;5071913;28;20063;-73
2023/04/14 03:23:51;;;;;;;110.43;105.28;;;3.00;99.90;;;;;;5050546;28;20051;-73
2023/04/14 03:26:19;;;;;;;113.38;108.32;;;3.10;99.90;;;;;;5067505;28;20120;-73
2023/04/14 03:28:52;;;;;;;105.53;100.65;;;3.10;99.90;;;;;;5055658;28;20052;-73
2023/04/14 03:31:19;;;;;;;103.82;99.35;;;3.10;99.90;;;;;;5065794;28;20403;-73
2023/04/14 03:33:54;;;;;;;107.05;102.45;;;3.00;99.90;;;;;;5066162;28;20125;-73
2023/04/14 03:36:21;;;;;;;106.45;101.50;;;2.90;99.90;;;;;;5066189;28;20109;-73
2023/04/14 03:38:48;;;;;;;108.63;103.68;;;2.90;99.90;;;;;;5068628;28;20055;-73
2023/04/14 03:41:18;;;;;;;113.57;108.53;;;2.90;99.90;;;;;;5066820;28;20040;-73
2023/04/14 03:43:45;;;;;;;119.38;114.00;;;2.90;99.90;;;;;;5051200;28;20041;-73
2023/04/14 03:46:12;;;;;;;115.22;110.18;;;2.90;99.90;;;;;;5051014;28;20036;-73
2023/04/14 03:48:41;;;;;;;115.93;110.72;;;3.00;99.90;;;;;;5051519;28;20047;-72
2023/04/14 03:51:10;;;;;;;111.05;106.03;;;3.10;99.90;;;;;;5069468;28;20445;-72
2023/04/14 03:53:40;;;;;;;107.00;101.95;;;3.20;99.90;;;;;;5051027;28;20056;-72
2023/04/14 03:56:09;;;;;;;103.47;98.82;;;3.30;99.90;;;;;;5050638;28;20490;-71
2023/04/14 03:58:35;;;;;;;102.22;97.72;;;3.30;99.90;;;;;;5050217;28;20051;-72
2023/04/14 04:01:02;;;;;;;102.18;97.32;;;3.40;99.90;;;;;;5063870;28;20037;-72
2023/04/14 04:03:28;;;;;;;102.85;98.10;;;3.40;99.90;;;;;;5050563;28;20583;-72
2023/04/14 04:05:54;;;;;;;96.47;92.25;;;3.30;99.90;;;;;;5068018;28;20035;-72
2023/04/14 04:08:22;;;;;;;96.38;91.82;;;3.30;99.90;;;;;;5068769;28;20101;-73
2023/04/14 04:10:48;;;;;;;101.18;96.63;;;3.30;99.90;;;;;;5046910;28;20508;-72
2023/04/14 04:13:18;;;;;;;99.60;95.10;;;3.20;99.90;;;;;;5067213;28;20062;-72
2023/04/14 04:15:45;;;;;;;100.35;95.63;;;3.10;99.90;;;;;;5046442;28;20098;-72
2023/04/14 04:18:15;;;;;;;101.40;96.90;;;3.00;99.90;;;;;;5050716;28;20391;-72
2023/04/14 04:20:41;;;;;;;102.25;97.75;;;3.00;99.90;;;;;;5049845;28;20066;-72
2023/04/14 04:23:08;;;;;;;105.88;101.07;;;2.90;99.90;;;;;;5064597;28;20040;-72
2023/04/14 04:25:36;;;;;;;109.20;104.15;;;2.90;99.90;;;;;;5051258;28;20451;-72
2023/04/14 04:28:02;;;;;;;105.28;100.45;;;2.90;99.90;;;;;;5071270;28;20353;-72
2023/04/14 04:30:30;;;;;;;101.53;97.03;;;2.90;99.90;;;;;;5072167;28;20066;-72
2023/04/14 04:32:56;;;;;;;100.20;95.50;;;2.90;99.90;;;;;;5087373;27;20047;-72
2023/04/14 04:35:23;;;;;;;108.13;103.30;;;2.90;99.90;;;;;;5074026;28;20047;-72
2023/04/14 04:37:49;;;;;;;108.57;103.90;;;2.90;99.90;;;;;;5105339;28;20047;-72
2023/04/14 04:40:15;;;;;;;109.00;104.03;;;2.90;99.90;;;;;;5071807;27;20168;-72
2023/04/14 04:42:42;;;;;;;103.53;98.75;;;2.80;99.90;;;;;;5091017;28;20087;-72
2023/04/14 04:45:08;;;;;;;109.07;104.07;;;2.80;99.90;;;;;;5087453;27;20036;-72
2023/04/14 04:47:34;;;;;;;109.78;104.93;;;2.80;99.90;;;;;;5088213;28;20028;-72
2023/04/14 04:49:59;;;;;;;110.25;105.40;;;2.90;99.90;;;;;;5088962;28;20035;-72
2023/04/14 04:52:25;;;;;;;114.53;109.03;;;2.90;99.90;;;;;;5105199;28;20479;-72
2023/04/14 04:54:51;;;;;;;113.57;108.20;;;2.80;99.90;;;;;;5104866;28;20036;-72
2023/04/14 04:57:18;;;;;;;108.30;103.28;;;2.80;99.90;;;;;;5070696;28;20479;-73
2023/04/14 04:59:43;;;;;;;108.13;103.53;;;2.80;99.90;;;;;;5069991;28;20096;-72
2023/04/14 05:02:09;;;;;;;113.28;108.32;;;2.70;99.90;;;;;;5087330;28;20436;-72
2023/04/14 05:04:35;;;;;;;111.97;107.15;;;2.70;99.90;;;;;;5088528;28;20063;-72
2023/04/14 05:07:02;;;;;;;117.80;111.65;;;2.70;99.90;;;;;;5087891;28;20055;-72
2023/04/14 05:09:28;;;;;;;111.05;106.28;;;2.70;99.90;;;;;;5070507;28;20092;-72
2023/04/14 05:11:53;;;;;;;111.05;106.28;;;2.80;99.90;;;;;;5087943;28;20035;-72
2023/04/14 05:14:19;;;;;;;111.55;106.53;;;2.90;99.90;;;;;;5071617;27;20049;-73
2023/04/14 05:16:46;;;;;;;110.55;105.30;;;2.90;99.90;;;;;;5071194;27;20044;-72
2023/04/14 05:19:12;;;;;;;109.40;104.50;;;2.90;99.90;;;;;;5075579;28;20043;-72
2023/04/14 05:21:37;;;;;;;114.68;109.43;;;3.00;99.90;;;;;;5088364;28;20075;-72
2023/04/14 05:24:04;;;;;;;113.00;107.78;;;3.00;99.90;;;;;;5102670;28;20522;-72
2023/04/14 05:26:30;;;;;;;117.38;112.03;;;3.00;99.90;;;;;;5072673;28;20136;-72
2023/04/14 05:28:55;;;;;;;116.82;111.60;;;3.00;99.90;;;;;;5070669;28;20120;-72
2023/04/14 05:31:21;;;;;;;111.88;107.00;;;3.00;99.90;;;;;;5070851;28;20069;-73
2023/04/14 05:33:47;;;;;;;112.63;107.72;;;3.00;99.90;;;;;;5088111;28;20505;-72
2023/04/14 05:36:12;;;;;;;118.22;112.72;;;3.10;99.90;;;;;;5105765;28;20066;-72
2023/04/14 05:38:41;;;;;;;117.15;111.78;;;3.10;99.90;;;;;;5086377;28;20044;-72
2023/04/14 05:41:07;;;;;;;112.93;107.85;;;3.10;99.90;;;;;;5070210;28;20041;-73
2023/04/14 05:43:33;;;;;;;116.72;111.18;;;3.20;99.90;;;;;;5075676;28;20040;-72
2023/04/14 05:45:59;;;;;;;116.43;111.22;;;3.20;99.90;;;;;;5089423;27;20035;-72
2023/04/14 05:48:28;;;;;;;115.10;109.78;;;3.30;99.90;;;;;;5090507;28;20040;-72
2023/04/14 05:50:54;;;;;;;115.93;110.68;;;3.30;99.90;;;;;;5089726;28;20048;-73
2023/04/14 05:53:19;;;;;;;118.05;112.82;;;3.40;99.90;;;;;;5104795;28;20040;-72
2023/04/14 05:55:46;;;;;;;116.28;110.95;;;3.50;99.90;;;;;;5091906;28;20043;-72
2023/04/14 05:58:12;;;;;;;118.28;113.20;;;3.60;99.90;;;;;;5089582;28;20372;-72
2023/04/14 06:00:37;;;;;;;122.65;117.32;;;3.70;99.90;;;;;;5091946;28;20120;-72
2023/04/14 06:03:03;;;;;;;113.72;108.28;;;3.70;99.90;;;;;;5089837;28;20036;-72
2023/04/14 06:05:29;;;;;;;120.82;115.22;;;3.80;99.90;;;;;;5092213;28;20127;-73
2023/04/14 06:07:54;;;;;;;115.55;110.55;;;4.10;99.90;;;;;;5076798;28;20040;-72
2023/04/14 06:10:20;;;;;;;118.15;112.50;;;4.40;99.90;;;;;;5091891;28;20039;-73
2023/04/14 06:12:46;;;;;;;106.50;101.80;;;4.60;99.90;;;;;;5090656;28;20039;-72
2023/04/14 06:15:11;;;;;;;105.68;100.57;;;5.00;99.90;;;;;;5090602;28;20494;-72
2023/04/14 06:17:38;;;;;;;110.25;105.50;;;5.40;99.90;;;;;;5106445;28;20066;-72
2023/04/14 06:20:05;;;;;;;102.97;98.20;;;5.80;99.90;;;;;;5074662;27;20531;-73
2023/04/14 06:22:31;;;;;;;81.45;77.53;;;6.40;99.90;;;;;;5090866;28;20051;-73
2023/04/14 06:24:57;;;;;;;83.85;79.68;;;6.90;99.90;;;;;;5094503;27;20054;-72
2023/04/14 06:27:23;;;;;;;76.72;72.82;;;7.00;99.90;;;;;;5090641;28;20036;-73
2023/04/14 06:29:50;;;;;;;75.40;71.80;;;7.10;99.90;;;;;;5092884;28;20403;-73
2023/04/14 06:32:17;;;;;;;70.25;66.80;;;7.30;99.90;;;;;;5071957;28;20039;-73
2023/04/14 06:34:42;;;;;;;69.43;66.03;;;7.40;99.90;;;;;;5089099;28;20394;-72
2023/04/14 06:37:08;;;;;;;70.00;66.68;;;7.50;99.90;;;;;;5090684;28;20039;-73
2023/04/14 06:39:34;;;;;;;53.72;50.50;;;7.70;99.90;;;;;;5072774;28;20126;-73
2023/04/14 06:41:59;;;;;;;48.58;45.88;;;7.80;99.90;;;;;;5089357;27;20069;-73
2023/04/14 06:44:25;;;;;;;41.25;38.95;;;7.60;99.90;;;;;;5073332;28;20118;-72
2023/04/14 06:46:51;;;;;;;45.10;42.55;;;7.50;99.90;;;;;;5090593;28;20040;-72
2023/04/14 06:49:18;;;;;;;42.10;39.13;;;7.50;99.90;;;;;;5089938;28;20089;-73
2023/04/14 06:51:44;;;;;;;41.28;38.88;;;7.50;99.90;;;;;;5088743;28;20088;-73
2023/04/14 06:54:10;;;;;;;42.90;40.15;;;7.50;99.90;;;;;;5106898;27;20035;-73
2023/04/14 06:56:35;;;;;;;41.67;39.35;;;7.50;99.90;;;;;;5073322;28;20100;-72
2023/04/14 06:59:01;;;;;;;40.47;37.83;;;7.60;99.90;;;;;;5074691;28;20091;-73
2023/04/14 07:01:27;;;;;;;37.22;35.00;;;7.70;99.90;;;;;;5088803;28;20071;-73
2023/04/14 07:03:52;;;;;;;41.35;38.88;;;7.80;99.90;;;;;;5068804;28;20071;-72
2023/04/14 07:06:18;;;;;;;35.85;33.85;;;7.90;99.90;;;;;;5071436;28;20062;-73
2023/04/14 07:08:45;;;;;;;45.40;42.92;;;7.90;99.90;;;;;;5105110;28;20028;-73
2023/04/14 07:11:11;;;;;;;44.22;41.83;;;7.90;99.90;;;;;;5091557;28;20036;-72
2023/04/14 07:13:38;;;;;;;40.28;37.70;;;8.10;99.90;;;;;;5090641;28;20133;-72
2023/04/14 07:16:07;;;;;;;43.88;41.30;;;8.20;99.90;;;;;;5072892;28;20043;-72
2023/04/14 07:18:32;;;;;;;32.00;29.85;;;8.20;99.90;;;;;;5087127;28;20046;-72
2023/04/14 07:20:59;;;;;;;32.35;30.15;;;8.30;99.90;;;;;;5108110;28;20398;-72
2023/04/14 07:23:25;;;;;;;40.90;38.45;;;8.40;99.90;;;;;;5073427;27;20043;-72
2023/04/14 07:25:57;;;;;;;30.33;28.58;;;8.50;99.90;;;;;;5072681;28;20042;-73
2023/04/14 07:28:23;;;;;;;29.23;26.88;;;8.60;99.90;;;;;;5068052;28;20083;-73
2023/04/14 07:30:50;;;;;;;40.28;37.70;;;8.70;99.90;;;;;;5105834;27;20032;-72
2023/04/14 07:33:17;;;;;;;32.30;30.23;;;8.70;99.90;;;;;;5090727;28;20035;-72
2023/04/14 07:35:47;;;;;;;34.97;32.97;;;8.80;99.90;;;;;;5107338;28;20118;-72
2023/04/14 07:38:13;;;;;;;31.15;29.25;;;9.00;99.90;;;;;;5070709;28;20035;-72
2023/04/14 07:40:39;;;;;;;40.70;38.50;;;9.10;99.90;;;;;;5090217;28;20537;-72
2023/04/14 07:43:04;;;;;;;34.65;32.45;;;9.10;99.90;;;;;;5089654;28;20031;-72
2023/04/14 07:45:30;;;;;;;34.83;32.70;;;9.20;99.90;;;;;;5103338;28;20040;-72
2023/04/14 07:47:56;;;;;;;31.27;29.42;;;9.30;99.90;;;;;;5090379;28;20042;-72
2023/04/14 07:50:22;;;;;;;37.45;35.15;;;9.40;99.90;;;;;;5121307;27;20383;-72
2023/04/14 07:52:48;;;;;;;35.72;33.72;;;9.50;99.90;;;;;;5074262;28;20046;-72
2023/04/14 07:55:14;;;;;;;27.23;25.30;;;9.50;99.90;;;;;;5075110;28;20038;-72
2023/04/14 07:57:39;;;;;;;31.08;29.15;;;9.60;99.90;;;;;;5089611;28;20518;-72
2023/04/14 08:00:08;;;;;;;49.45;46.72;;;9.70;99.90;;;;;;5088108;28;20127;-72
2023/04/14 08:02:34;;;;;;;29.70;27.35;;;9.80;99.90;;;;;;5071274;28;20051;-72
2023/04/14 08:05:00;;;;;;;30.52;28.38;;;9.90;99.90;;;;;;5088027;28;20411;-72
2023/04/14 08:07:27;;;;;;;35.40;33.10;;;10.00;99.90;;;;;;5089517;28;20036;-72
2023/04/14 08:09:53;;;;;;;29.60;27.70;;;10.10;99.90;;;;;;5086538;28;20046;-72
2023/04/14 08:12:19;;;;;;;28.75;26.85;;;10.30;99.90;;;;;;5071336;28;20039;-72
2023/04/14 08:14:46;;;;;;;39.70;37.42;;;10.30;99.90;;;;;;5086513;28;20558;-72
2023/04/14 08:17:12;;;;;;;28.88;26.98;;;10.30;99.90;;;;;;5088031;28;20039;-72
2023/04/14 08:19:38;;;;;;;27.50;25.80;;;10.40;99.90;;;;;;5075269;27;20039;-72
2023/04/14 08:22:03;;;;;;;33.65;31.58;;;10.40;99.90;;;;;;5090338;27;20060;-72
2023/04/14 08:24:29;;;;;;;29.63;27.33;;;10.50;99.90;;;;;;5089082;28;20054;-72
2023/04/14 08:26:55;;;;;;;40.20;37.80;;;10.60;99.90;;;;;;5087608;28;20416;-72
2023/04/14 08:29:21;;;;;;;32.22;30.25;;;10.70;99.90;;;;;;5084915;28;20051;-72
2023/04/14 08:31:47;;;;;;;31.25;29.17;;;10.90;99.90;;;;;;5073931;28;20119;-72
2023/04/14 08:34:14;;;;;;;34.53;32.25;;;11.00;99.90;;;;;;5089443;28;20526;-72
2023/04/14 08:36:40;;;;;;;34.58;32.38;;;11.00;99.90;;;;;;5090305;28;20047;-72
2023/04/14 08:39:05;;;;;;;33.78;31.75;;;11.10;99.90;;;;;;5088158;27;20043;-72
2023/04/14 08:41:33;;;;;;;34.67;32.65;;;11.20;99.90;;;;;;5090155;27;20056;-72
2023/04/14 08:44:00;;;;;;;34.05;31.83;;;11.20;99.90;;;;;;5087154;28;20459;-72
2023/04/14 08:46:26;;;;;;;37.80;35.55;;;11.40;99.90;;;;;;5089630;28;20569;-72
2023/04/14 08:49:01;;;;;;;35.83;33.55;;;11.60;99.90;;;;;;5084859;28;20038;-72
2023/04/14 08:51:31;;;;;;;;;;;12.10;99.90;;;;;;5089511;28;20126;-72
2023/04/14 08:53:57;;;;;;;29.65;27.75;;;12.70;99.90;;;;;;5087195;28;19923;-72
2023/04/14 08:56:29;;;;;;;31.88;29.65;;;13.50;99.90;;;;;;5088880;28;20040;-72
2023/04/14 08:58:55;;;;;;;28.30;26.33;;;14.10;99.90;;;;;;5087666;28;20085;-72
2023/04/14 09:01:21;;;;;;;25.90;24.10;;;14.50;99.90;;;;;;5087711;28;20108;-72
2023/04/14 09:03:48;;;;;;;45.83;43.40;;;14.80;99.90;;;;;;5085290;28;20051;-73
2023/04/14 09:06:14;;;;;;;27.45;25.58;;;15.20;99.90;;;;;;5088789;28;20513;-72
2023/04/14 09:08:39;;;;;;;25.27;23.63;;;15.50;99.90;;;;;;5088117;28;20051;-72
2023/04/14 09:11:05;;;;;;;25.75;24.05;;;15.80;99.90;;;;;;5103106;28;20032;-72
2023/04/14 09:13:31;;;;;;;23.65;21.95;;;15.80;99.90;;;;;;5070737;28;20036;-72
2023/04/14 09:15:58;;;;;;;24.33;22.58;;;15.80;99.90;;;;;;5087656;27;20038;-72
2023/04/14 09:18:24;;;;;;;29.60;27.75;;;15.80;99.90;;;;;;5104622;28;20090;-72
2023/04/14 09:20:51;;;;;;;25.13;23.23;;;15.90;99.90;;;;;;5088015;28;20502;-72
2023/04/14 09:23:18;;;;;;;28.58;26.45;;;15.80;99.10;;;;;;5069495;28;20031;-72
2023/04/14 09:25:44;;;;;;;25.20;23.17;;;15.80;97.60;;;;;;5119656;27;20039;-72
2023/04/14 09:28:10;;;;;;;15.38;13.85;;;16.00;99.20;;;;;;5088082;28;20063;-72
2023/04/14 09:30:36;;;;;;;20.17;18.13;;;16.10;99.20;;;;;;5071433;28;20058;-72
2023/04/14 09:33:18;;;;;;;15.60;14.30;;;16.00;96.30;;;;;;5089768;28;20039;-72
2023/04/14 09:35:49;;;;;;;19.15;17.70;;;15.30;94.90;;;;;;5086712;28;20043;-72
2023/04/14 09:38:35;;;;;;;16.33;14.80;;;15.00;97.20;;;;;;5087718;28;20044;-72
2023/04/14 09:41:01;;;;;;;22.15;20.70;;;15.10;96.40;;;;;;5086370;28;20039;-72
2023/04/14 09:43:28;;;;;;;21.67;19.85;;;15.10;97.50;;;;;;5088641;28;20046;-72
2023/04/14 09:45:55;;;;;;;21.67;20.00;;;15.20;97.10;;;;;;5087968;28;20135;-72
2023/04/14 09:48:21;;;;;;;16.08;14.43;;;15.10;96.10;;;;;;5120407;27;20097;-72
2023/04/14 09:51:02;;;;;;;18.08;16.02;;;14.60;94.40;;;;;;5071517;28;20032;-72
2023/04/14 09:53:28;;;;;;;15.90;14.43;;;14.40;96.50;;;;;;5087613;28;20036;-72
2023/04/14 09:55:55;;;;;;;18.33;17.00;;;14.30;96.20;;;;;;5069257;28;20031;-72
2023/04/14 09:58:21;;;;;;;17.67;16.17;;;14.10;97.30;;;;;;5087931;28;20048;-73
2023/04/14 10:00:49;;;;;;;21.33;19.83;;;13.90;97.50;;;;;;5086385;28;20036;-72
2023/04/14 10:03:15;;;;;;;22.10;20.55;;;13.90;97.80;;;;;;5088264;28;20063;-73
2023/04/14 10:05:46;;;;;;;16.95;15.60;;;14.20;98.60;;;;;;5069894;28;20461;-72
2023/04/14 10:08:12;;;;;;;14.30;13.07;;;14.40;97.40;;;;;;5086637;28;20051;-72
2023/04/14 10:10:38;;;;;;;17.70;16.17;;;14.20;96.30;;;;;;5088303;28;20118;-72
2023/04/14 10:13:03;;;;;;;20.98;19.27;;;14.00;97.00;;;;;;5086520;28;20096;-72
2023/04/14 10:15:29;;;;;;;19.08;17.55;;;14.00;98.80;;;;;;5087868;28;20046;-72
2023/04/14 10:17:55;;;;;;;22.48;20.77;;;14.40;99.40;;;;;;5087420;28;20419;-72
2023/04/14 10:20:22;;;;;;;15.85;14.35;;;14.80;98.60;;;;;;5087291;28;20074;-72
2023/04/14 10:22:48;;;;;;;16.98;15.55;;;15.10;97.20;;;;;;5087865;28;20040;-72
2023/04/14 10:25:14;;;;;;;15.80;14.15;;;15.40;95.80;;;;;;5101556;28;20043;-72
2023/04/14 10:27:40;;;;;;;14.82;13.52;;;15.60;94.20;;;;;;5105895;28;20032;-72
2023/04/14 10:30:07;;;;;;;15.60;14.15;;;15.40;94.50;;;;;;5071360;28;20186;-72
2023/04/14 10:32:35;;;;;;;15.13;13.63;;;15.10;93.70;;;;;;5103227;28;20578;-72
2023/04/14 10:35:10;;;;;;;14.88;13.45;;;14.70;93.40;;;;;;5083998;28;20036;-72
2023/04/14 10:37:36;;;;;;;14.57;13.23;;;14.70;95.60;;;;;;5070789;28;20048;-72
2023/04/14 10:40:07;;;;;;;16.33;15.05;;;15.00;96.90;;;;;;5085149;28;20487;-72
2023/04/14 10:42:55;;;;;;;13.65;12.40;;;15.50;96.50;;;;;;5074105;28;20035;-72
2023/04/14 10:45:21;;;;;;;14.63;13.52;;;16.20;95.80;;;;;;5086658;28;20526;-72
2023/04/14 10:47:46;;;;;;;16.08;13.57;;;16.30;95.70;;;;;;5059213;28;20123;-72
2023/04/14 10:50:14;;;;;;;13.68;12.57;;;16.40;92.80;;;;;;5069810;28;20055;-72
2023/04/14 10:52:57;;;;;;;13.60;12.40;;;16.50;93.80;;;;;;5086147;28;20040;-72
2023/04/14 10:55:27;;;;;;;14.75;13.25;;;16.50;92.30;;;;;;5081624;28;20055;-72
2023/04/14 10:58:03;;;;;;;13.60;12.35;;;16.50;92.60;;;;;;5077829;28;20518;-72
2023/04/14 11:00:32;;;;;;;14.43;13.02;;;16.40;93.00;;;;;;5080495;28;20318;-72
2023/04/14 11:03:02;;;;;;;16.35;13.38;;;16.20;93.10;;;;;;5067534;28;20036;-72
2023/04/14 11:05:27;;;;;;;14.30;13.05;;;15.80;92.80;;;;;;5082979;28;20085;-72
2023/04/14 11:07:55;;;;;;;14.48;13.07;;;15.50;93.20;;;;;;5082748;28;20491;-71
2023/04/14 11:10:21;;;;;;;13.48;12.23;;;15.20;94.00;;;;;;5074088;28;20051;-71
2023/04/14 11:12:54;;;;;;;14.40;13.13;;;15.30;95.50;;;;;;5069290;28;20046;-71
2023/04/14 11:15:20;;;;;;;14.02;12.70;;;15.80;95.40;;;;;;5083553;28;20032;-71
2023/04/14 11:17:46;;;;;;;13.10;11.85;;;16.20;93.20;;;;;;5080813;28;20093;-71
2023/04/14 11:20:22;;;;;;;13.20;11.38;;;16.60;93.40;;;;;;5066487;28;20040;-71
2023/04/14 11:22:51;;;;;;;12.40;11.18;;;16.90;94.00;;;;;;5081436;28;20040;-72
2023/04/14 11:25:20;;;;;;;12.90;11.60;;;16.90;93.90;;;;;;5059847;28;20040;-72
2023/04/14 11:27:49;;;;;;;11.20;10.30;;;16.80;93.00;;;;;;5082177;28;20631;-71
2023/04/14 11:30:20;;;;;;;13.52;12.32;;;16.80;90.50;;;;;;5086015;28;20048;-71
2023/04/14 11:32:46;;;;;;;12.20;10.93;;;16.70;91.60;;;;;;5080341;28;20150;-71
2023/04/14 11:35:12;;;;;;;12.75;11.68;;;16.80;91.70;;;;;;5085601;28;20051;-71
2023/04/14 11:37:38;;;;;;;12.13;10.88;;;16.90;93.20;;;;;;5103222;27;20032;-71
2023/04/14 11:40:05;;;;;;;13.93;11.68;;;17.00;92.40;;;;;;5087980;28;20054;-71
2023/04/14 11:42:32;;;;;;;14.98;11.10;;;16.90;91.50;;;;;;5088176;28;20365;-71
2023/04/14 11:44:58;;;;;;;12.45;11.25;;;16.60;91.70;;;;;;5085262;28;20032;-71
2023/04/14 11:47:24;;;;;;;12.77;11.57;;;16.60;90.50;;;;;;5070912;28;20546;-72
2023/04/14 11:49:50;;;;;;;13.07;11.38;;;16.70;91.80;;;;;;5084680;28;20047;-71
2023/04/14 11:52:19;;;;;;;12.77;11.57;;;16.90;92.40;;;;;;5080563;28;20088;-71
2023/04/14 11:54:45;;;;;;;12.32;11.20;;;17.20;92.50;;;;;;5065460;28;20122;-71
2023/04/14 11:57:11;;;;;;;10.75;9.65;;;17.10;92.00;;;;;;5087431;28;20118;-71
2023/04/14 11:59:46;;;;;;;11.80;10.77;;;17.20;90.80;;;;;;5079715;28;20051;-71
2023/04/14 12:02:16;;;;;;;10.55;9.50;;;17.20;90.30;;;;;;5088063;28;20049;-71
2023/04/14 12:04:44;;;;;;;12.27;10.35;;;17.20;89.50;;;;;;5114479;27;20040;-71
2023/04/14 12:07:11;;;;;;;11.07;9.38;;;17.40;91.40;;;;;;5088611;28;20615;-71
2023/04/14 12:09:41;;;;;;;13.00;11.70;;;17.70;90.80;;;;;;5071838;27;20422;-71
2023/04/14 12:12:13;;;;;;;13.35;12.05;;;17.90;88.10;;;;;;5069841;28;20114;-71
2023/04/14 12:14:47;;;;;;;13.57;12.45;;;17.70;86.80;;;;;;5086871;27;20043;-71
2023/04/14 12:17:14;;;;;;;11.18;10.07;;;17.50;87.20;;;;;;5069857;28;20088;-71
2023/04/14 12:19:41;;;;;;;12.10;10.93;;;17.40;85.40;;;;;;5086212;27;20046;-71
2023/04/14 12:22:08;;;;;;;12.68;11.48;;;17.10;85.30;;;;;;5086648;28;20040;-71
2023/04/14 12:24:39;;;;;;;12.18;10.95;;;16.80;84.90;;;;;;5089346;28;20047;-71
2023/04/14 12:27:06;;;;;;;12.63;11.27;;;16.40;82.10;;;;;;5070424;28;20183;-71
2023/04/14 12:29:33;;;;;;;15.07;13.73;;;16.60;86.70;;;;;;5086808;28;20497;-71
2023/04/14 12:32:00;;;;;;;9.77;8.90;;;17.00;87.70;;;;;;5086778;28;20151;-71